Terminal Aerodrome Forecast
Issued by NWS Wakefield, VA

Home | Current Version | Previous Version | Text Only | Print | Product List | Glossary On
Versions: 1 2 3 4 5 6 7 8 9 10 11 12 13 14 15 16 17 18 19
157
FTUS41 KAKQ 221840 AAA
TAFECG
TAF AMD
KECG 221840Z 2219/2318 22008KT P6SM VCTS FEW025CB BKN035
      TEMPO 2219/2221 1SM -TSRA FEW010CB BKN025
     FM222100 22007KT P6SM BKN070
     FM230000 19007KT P6SM SCT250
     FM230300 21010KT P6SM SCT100
     FM230500 22011KT P6SM BKN100
     FM231400 22012KT P6SM BKN050=

USA.gov is the U.S. government's official web portal to all federal, state and local government web resources and services.